Time;durP1;ratioP1;P1;durP2;ratioP2;P2;SDS_P1;SDS_P2;PMS_P1;PMS_P2;Temp;Humidity;BMP_temperature;BMP_pressure;BME280_temperature;BME280_humidity;BME280_pressure;Samples;Min_cycle;Max_cycle;Signal;HPM_P1;HPM_P2
2023/05/28 00:01:18;;;;;;;10.10;6.68;;;22.30;72.40;;;;;;6215385;23;20079;-72
2023/05/28 00:03:44;;;;;;;13.45;7.05;;;22.20;72.30;;;;;;6215428;23;20063;-71
2023/05/28 00:06:10;;;;;;;11.32;7.00;;;22.20;72.40;;;;;;6215251;23;20072;-71
2023/05/28 00:08:37;;;;;;;10.73;6.25;;;22.10;72.70;;;;;;6215287;23;20015;-71
2023/05/28 00:11:03;;;;;;;9.95;6.75;;;22.00;72.70;;;;;;6216669;23;20008;-71
2023/05/28 00:13:31;;;;;;;11.27;6.97;;;22.00;73.00;;;;;;6214031;23;20545;-71
2023/05/28 00:15:58;;;;;;;9.05;6.32;;;21.90;73.20;;;;;;6216013;23;20004;-71
2023/05/28 00:18:24;;;;;;;12.95;6.63;;;21.90;73.10;;;;;;6218300;23;20012;-71
2023/05/28 00:20:50;;;;;;;13.23;6.90;;;22.00;73.20;;;;;;6240727;23;20015;-71
2023/05/28 00:23:16;;;;;;;10.25;6.43;;;21.90;73.00;;;;;;6227623;23;20316;-72
2023/05/28 00:25:42;;;;;;;12.05;6.30;;;21.90;73.20;;;;;;6216985;23;20032;-71
2023/05/28 00:28:08;;;;;;;11.43;7.03;;;21.80;73.30;;;;;;6215564;23;20033;-72
2023/05/28 00:30:33;;;;;;;12.63;6.57;;;21.90;73.10;;;;;;6215518;23;20000;-71
2023/05/28 00:32:59;;;;;;;10.43;6.35;;;21.80;73.10;;;;;;6215431;23;20008;-71
2023/05/28 00:35:25;;;;;;;11.02;6.65;;;21.80;73.20;;;;;;6215325;23;20007;-71
2023/05/28 00:37:52;;;;;;;10.85;6.47;;;21.80;73.10;;;;;;6215128;23;20004;-71
2023/05/28 00:40:18;;;;;;;11.27;6.38;;;21.80;72.90;;;;;;6188915;23;20346;-71
2023/05/28 00:42:45;;;;;;;11.68;6.10;;;21.80;72.70;;;;;;6215374;23;20068;-72
2023/05/28 00:45:11;;;;;;;8.18;5.78;;;21.80;72.60;;;;;;6213608;23;20067;-70
2023/05/28 00:47:41;;;;;;;10.10;6.20;;;21.80;72.80;;;;;;6214936;23;20001;-71
2023/05/28 00:50:12;;;;;;;14.07;6.68;;;21.70;73.60;;;;;;6215275;23;20001;-71
2023/05/28 00:52:38;;;;;;;9.35;6.53;;;21.70;72.60;;;;;;6215734;23;20048;-72
2023/05/28 00:55:16;;;;;;;7.95;6.20;;;21.70;72.90;;;;;;6215275;23;20448;-72
2023/05/28 00:57:43;;;;;;;10.48;6.68;;;21.60;73.70;;;;;;6215084;23;20030;-70
2023/05/28 01:00:10;;;;;;;12.00;6.63;;;21.50;72.90;;;;;;6215121;23;20046;-71
2023/05/28 01:02:35;;;;;;;9.68;6.13;;;21.50;73.20;;;;;;6214926;23;20055;-71
2023/05/28 01:05:02;;;;;;;12.43;6.72;;;21.50;73.30;;;;;;6215054;23;20020;-72
2023/05/28 01:07:27;;;;;;;19.00;6.57;;;21.50;73.40;;;;;;6215034;23;20000;-72
2023/05/28 01:09:53;;;;;;;12.63;6.90;;;21.40;73.50;;;;;;6214810;23;20010;-71
2023/05/28 01:12:21;;;;;;;13.90;6.50;;;21.40;73.70;;;;;;6215102;23;19997;-71
2023/05/28 01:14:48;;;;;;;10.77;7.47;;;21.30;73.50;;;;;;6214855;23;20453;-70
2023/05/28 01:17:14;;;;;;;12.35;7.18;;;21.30;73.80;;;;;;6214853;23;20000;-70
2023/05/28 01:19:42;;;;;;;14.20;6.78;;;21.30;73.90;;;;;;6214773;23;20346;-71
2023/05/28 01:22:12;;;;;;;8.88;6.10;;;21.20;74.10;;;;;;6214358;23;20427;-71
2023/05/28 01:24:39;;;;;;;11.52;6.90;;;21.20;73.90;;;;;;6215006;23;20024;-71
2023/05/28 01:27:06;;;;;;;11.85;6.38;;;21.20;73.90;;;;;;6213320;23;20023;-70
2023/05/28 01:29:32;;;;;;;14.93;7.30;;;21.30;74.00;;;;;;6214482;23;20004;-70
2023/05/28 01:31:58;;;;;;;10.10;6.68;;;21.30;74.10;;;;;;6214571;23;20001;-71
2023/05/28 01:34:24;;;;;;;9.65;6.05;;;21.30;74.10;;;;;;6214677;23;20099;-73
2023/05/28 01:37:00;;;;;;;9.05;6.30;;;21.30;73.90;;;;;;6214863;23;20001;-71
2023/05/28 01:39:30;;;;;;;10.45;6.18;;;21.20;73.80;;;;;;6214842;23;20107;-72
2023/05/28 01:42:01;;;;;;;10.23;6.22;;;21.20;73.60;;;;;;6214622;23;20052;-71
2023/05/28 01:44:28;;;;;;;9.05;5.78;;;21.10;74.40;;;;;;6214843;23;20008;-71
2023/05/28 01:46:55;;;;;;;10.13;5.95;;;21.20;73.60;;;;;;6214588;23;20323;-72
2023/05/28 01:49:21;;;;;;;8.20;5.80;;;21.20;73.50;;;;;;6214588;23;20381;-71
2023/05/28 01:51:47;;;;;;;13.43;6.78;;;21.20;73.20;;;;;;6214686;23;20040;-71
2023/05/28 01:54:13;;;;;;;8.02;5.70;;;21.10;72.70;;;;;;6214671;23;20051;-70
2023/05/28 01:56:38;;;;;;;11.50;5.97;;;21.10;72.50;;;;;;6214347;23;20461;-71
2023/05/28 01:59:04;;;;;;;9.35;6.20;;;21.10;71.90;;;;;;6214984;23;20017;-71
2023/05/28 02:01:35;;;;;;;9.75;5.60;;;21.10;70.90;;;;;;6214624;23;20076;-72
2023/05/28 02:04:01;;;;;;;14.38;6.13;;;21.10;70.50;;;;;;6214512;23;20036;-71
2023/05/28 02:06:29;;;;;;;9.52;5.78;;;21.20;70.20;;;;;;6214528;23;20001;-71
2023/05/28 02:08:55;;;;;;;11.93;6.13;;;21.20;69.90;;;;;;6214247;23;20124;-71
2023/05/28 02:11:21;;;;;;;9.77;6.00;;;21.20;69.90;;;;;;6214574;23;20032;-71
2023/05/28 02:13:48;;;;;;;9.88;5.82;;;21.20;69.40;;;;;;6214544;23;20005;-71
2023/05/28 02:16:17;;;;;;;8.82;6.18;;;21.20;69.10;;;;;;6214206;23;20024;-71
2023/05/28 02:18:49;;;;;;;11.50;5.70;;;21.10;69.00;;;;;;6214490;23;20008;-71
2023/05/28 02:21:17;;;;;;;9.15;5.72;;;21.10;68.90;;;;;;6214659;23;20079;-71
2023/05/28 02:23:44;;;;;;;9.70;5.78;;;21.00;69.00;;;;;;6214336;23;20009;-71
2023/05/28 02:26:10;;;;;;;8.63;5.70;;;21.00;69.00;;;;;;6214444;23;19996;-70
2023/05/28 02:28:36;;;;;;;11.02;6.28;;;21.00;69.30;;;;;;6214316;23;20015;-70
2023/05/28 02:31:02;;;;;;;11.45;6.25;;;20.90;69.40;;;;;;6214420;23;20435;-71
2023/05/28 02:33:28;;;;;;;15.02;5.97;;;20.90;69.30;;;;;;6216130;23;20000;-71
2023/05/28 02:35:54;;;;;;;9.20;5.93;;;20.90;69.30;;;;;;6216861;23;20079;-71
2023/05/28 02:38:20;;;;;;;9.27;6.10;;;20.90;69.60;;;;;;6216241;23;20008;-71
2023/05/28 02:40:46;;;;;;;11.10;5.90;;;20.90;69.50;;;;;;6217141;23;20004;-71
2023/05/28 02:43:12;;;;;;;9.38;6.32;;;20.90;69.40;;;;;;6218184;23;20135;-71
2023/05/28 02:45:37;;;;;;;9.48;5.78;;;20.90;69.60;;;;;;6233917;23;20024;-70
2023/05/28 02:48:03;;;;;;;10.93;6.25;;;20.90;69.90;;;;;;6226458;23;20422;-72
2023/05/28 02:50:29;;;;;;;9.55;5.78;;;20.90;69.90;;;;;;6217295;23;20003;-72
2023/05/28 02:52:56;;;;;;;11.50;5.95;;;20.90;70.00;;;;;;6215083;23;20035;-70
2023/05/28 02:55:22;;;;;;;10.45;6.18;;;20.90;70.20;;;;;;6216352;23;20124;-70
2023/05/28 02:57:47;;;;;;;9.00;6.60;;;20.90;70.20;;;;;;6216330;23;20021;-70
2023/05/28 03:00:13;;;;;;;10.93;6.25;;;20.90;70.30;;;;;;6215971;23;20040;-71
2023/05/28 03:02:39;;;;;;;8.88;5.30;;;20.80;70.70;;;;;;6215908;23;20054;-71
2023/05/28 03:05:05;;;;;;;9.82;5.90;;;20.60;70.70;;;;;;6214440;23;20025;-72
2023/05/28 03:07:31;;;;;;;10.60;6.57;;;20.60;70.40;;;;;;6216036;23;20079;-70
2023/05/28 03:09:59;;;;;;;13.40;6.63;;;20.60;70.40;;;;;;6215895;23;20000;-70
2023/05/28 03:12:25;;;;;;;11.45;6.70;;;20.60;69.80;;;;;;6216390;23;20323;-71
2023/05/28 03:14:50;;;;;;;11.10;6.55;;;20.60;69.80;;;;;;6216621;23;20073;-70
2023/05/28 03:17:16;;;;;;;10.70;6.55;;;20.60;69.10;;;;;;6216294;23;20064;-71
2023/05/28 03:19:42;;;;;;;11.40;6.22;;;20.60;69.00;;;;;;6216183;23;20088;-70
2023/05/28 03:22:08;;;;;;;12.70;5.97;;;20.60;68.60;;;;;;6216076;23;20001;-72
2023/05/28 03:24:34;;;;;;;10.73;6.07;;;20.50;68.50;;;;;;6215860;23;20040;-71
2023/05/28 03:27:01;;;;;;;14.02;6.68;;;20.40;68.50;;;;;;6189183;23;20442;-70
2023/05/28 03:29:27;;;;;;;12.13;6.25;;;20.40;68.40;;;;;;6216171;23;20015;-72
2023/05/28 03:31:53;;;;;;;10.85;6.63;;;20.40;68.50;;;;;;6215795;23;20486;-70
2023/05/28 03:34:20;;;;;;;10.77;6.50;;;20.30;68.20;;;;;;6215670;23;20442;-71
2023/05/28 03:36:45;;;;;;;10.45;6.82;;;20.30;68.50;;;;;;6215995;23;20020;-70
2023/05/28 03:39:11;;;;;;;11.35;6.45;;;20.20;68.50;;;;;;6215326;23;20035;-70
2023/05/28 03:41:37;;;;;;;9.65;6.40;;;20.20;68.20;;;;;;6215869;23;20001;-70
2023/05/28 03:44:05;;;;;;;10.50;5.72;;;20.20;68.00;;;;;;6215361;23;20004;-71
2023/05/28 03:46:31;;;;;;;12.18;6.43;;;20.20;67.90;;;;;;6215547;23;20060;-71
2023/05/28 03:48:56;;;;;;;9.63;6.35;;;20.10;68.00;;;;;;6215606;23;20418;-70
2023/05/28 03:51:23;;;;;;;12.23;6.47;;;20.20;68.10;;;;;;6215516;23;20028;-70
2023/05/28 03:53:49;;;;;;;11.73;6.68;;;20.10;67.90;;;;;;6215989;23;20004;-70
2023/05/28 03:56:16;;;;;;;11.30;6.50;;;20.10;67.80;;;;;;6215443;23;20071;-71
2023/05/28 03:58:41;;;;;;;12.07;6.80;;;20.00;67.90;;;;;;6215520;23;20012;-71
2023/05/28 04:01:07;;;;;;;11.27;6.85;;;20.10;68.40;;;;;;6215517;23;20003;-70
2023/05/28 04:03:33;;;;;;;9.68;6.40;;;20.10;68.20;;;;;;6215296;23;20025;-70
2023/05/28 04:06:00;;;;;;;10.18;6.32;;;20.00;68.40;;;;;;6215731;23;20007;-70
2023/05/28 04:08:26;;;;;;;11.00;6.70;;;20.00;68.70;;;;;;6215475;23;20004;-71
2023/05/28 04:10:52;;;;;;;11.95;6.47;;;20.10;68.80;;;;;;6215385;23;20005;-70
2023/05/28 04:13:17;;;;;;;10.60;6.40;;;20.10;68.70;;;;;;6215287;23;20047;-71
2023/05/28 04:15:43;;;;;;;11.60;7.03;;;20.10;68.70;;;;;;6215215;23;20355;-71
2023/05/28 04:18:09;;;;;;;13.77;7.25;;;20.10;68.70;;;;;;6215203;23;19997;-70
2023/05/28 04:20:35;;;;;;;10.95;6.85;;;20.10;68.60;;;;;;6215213;23;20385;-71
2023/05/28 04:23:01;;;;;;;11.07;6.72;;;20.10;68.50;;;;;;6215258;23;20005;-71
2023/05/28 04:25:28;;;;;;;10.93;7.13;;;20.20;68.70;;;;;;6215336;23;20043;-71
2023/05/28 04:27:54;;;;;;;10.15;6.65;;;20.20;68.50;;;;;;6215071;23;19996;-70
2023/05/28 04:30:23;;;;;;;12.70;7.00;;;20.20;69.20;;;;;;6215079;23;20084;-70
2023/05/28 04:32:53;;;;;;;9.90;6.50;;;20.10;68.70;;;;;;6215202;23;20000;-70
2023/05/28 04:35:19;;;;;;;14.32;6.95;;;20.20;68.60;;;;;;6215155;23;20004;-72
2023/05/28 04:37:45;;;;;;;11.90;6.60;;;20.30;68.30;;;;;;6215253;23;20430;-71
2023/05/28 04:40:14;;;;;;;8.90;6.03;;;20.30;68.20;;;;;;6214634;23;20062;-70
2023/05/28 04:42:40;;;;;;;10.35;6.82;;;20.20;68.20;;;;;;6214997;23;20059;-71
2023/05/28 04:45:10;;;;;;;10.98;6.57;;;20.30;68.10;;;;;;6213173;23;20032;-69
2023/05/28 04:47:36;;;;;;;8.82;6.15;;;20.30;67.90;;;;;;6215061;23;19997;-72
2023/05/28 04:50:06;;;;;;;11.77;6.50;;;20.40;68.50;;;;;;6215278;23;20000;-71
2023/05/28 04:52:35;;;;;;;10.57;7.13;;;20.40;67.70;;;;;;6215182;23;20343;-70
2023/05/28 04:55:04;;;;;;;12.45;6.32;;;20.50;67.50;;;;;;6189086;23;20373;-71
2023/05/28 04:57:30;;;;;;;14.23;6.43;;;20.50;67.80;;;;;;6214571;23;20430;-71
2023/05/28 04:59:56;;;;;;;11.90;6.35;;;20.60;67.60;;;;;;6213261;23;20062;-70
2023/05/28 05:02:23;;;;;;;11.73;6.07;;;20.60;67.40;;;;;;6215156;23;20000;-70
2023/05/28 05:04:49;;;;;;;13.25;6.55;;;20.70;67.50;;;;;;6214647;23;20027;-72
2023/05/28 05:07:15;;;;;;;10.88;6.22;;;20.80;67.20;;;;;;6215067;23;19996;-71
2023/05/28 05:09:41;;;;;;;11.85;6.47;;;20.90;67.20;;;;;;6222430;23;20024;-71
2023/05/28 05:12:07;;;;;;;10.85;6.57;;;20.90;66.90;;;;;;6227987;23;20020;-71
2023/05/28 05:14:34;;;;;;;14.30;6.72;;;21.10;67.10;;;;;;6227616;23;20008;-72
2023/05/28 05:17:00;;;;;;;10.48;6.53;;;21.30;66.30;;;;;;6189269;23;20020;-70
2023/05/28 05:19:26;;;;;;;10.43;6.10;;;21.50;66.10;;;;;;6214694;23;20019;-71
2023/05/28 05:21:52;;;;;;;15.82;6.93;;;21.80;65.70;;;;;;6215089;23;20439;-70
2023/05/28 05:24:18;;;;;;;11.35;6.68;;;22.10;64.80;;;;;;6214906;23;20024;-70
2023/05/28 05:26:44;;;;;;;9.45;6.28;;;22.40;64.30;;;;;;6214680;23;19997;-71
2023/05/28 05:29:09;;;;;;;10.63;6.47;;;22.70;63.90;;;;;;6214626;23;20007;-72
2023/05/28 05:31:35;;;;;;;12.60;6.63;;;22.90;63.10;;;;;;6215060;23;20000;-71
2023/05/28 05:34:01;;;;;;;12.90;6.68;;;23.20;63.00;;;;;;6214808;23;20454;-70
2023/05/28 05:36:26;;;;;;;10.52;6.30;;;23.50;62.80;;;;;;6215155;23;19997;-71
2023/05/28 05:38:52;;;;;;;9.68;5.80;;;23.70;62.30;;;;;;6214838;23;20124;-71
2023/05/28 05:41:18;;;;;;;11.98;6.18;;;23.70;61.80;;;;;;6214934;23;20000;-72
2023/05/28 05:43:44;;;;;;;10.23;5.53;;;24.00;61.90;;;;;;6214706;23;20080;-71
2023/05/28 05:46:09;;;;;;;8.50;5.65;;;24.10;61.60;;;;;;6214820;23;20001;-71
2023/05/28 05:48:35;;;;;;;13.60;5.57;;;24.10;61.60;;;;;;6214774;23;20013;-70
2023/05/28 05:51:02;;;;;;;10.70;5.95;;;24.30;61.20;;;;;;6214421;23;20481;-72
2023/05/28 05:53:29;;;;;;;9.93;6.05;;;24.50;61.20;;;;;;6215135;23;20031;-71
2023/05/28 05:55:55;;;;;;;10.93;6.18;;;24.70;61.10;;;;;;6214804;23;20028;-71
2023/05/28 05:58:21;;;;;;;10.75;6.32;;;24.80;60.80;;;;;;6214284;23;20120;-71
2023/05/28 06:00:50;;;;;;;8.25;5.50;;;25.00;60.60;;;;;;6214632;23;20059;-71
2023/05/28 06:03:16;;;;;;;9.75;6.32;;;25.10;60.10;;;;;;6214735;23;20055;-70
2023/05/28 06:05:42;;;;;;;8.85;5.80;;;25.20;59.80;;;;;;6214765;23;20494;-70
2023/05/28 06:08:07;;;;;;;10.75;5.90;;;25.20;59.10;;;;;;6215720;23;20024;-71
2023/05/28 06:10:33;;;;;;;9.77;6.07;;;25.20;59.20;;;;;;6216608;23;20035;-70
2023/05/28 06:13:02;;;;;;;11.18;5.32;;;25.40;59.20;;;;;;6216704;23;19997;-71
2023/05/28 06:15:28;;;;;;;11.63;6.40;;;25.50;58.90;;;;;;6216652;23;20001;-70
2023/05/28 06:17:55;;;;;;;12.15;6.50;;;25.70;58.90;;;;;;6216785;23;20427;-71
2023/05/28 06:20:21;;;;;;;9.05;5.90;;;25.70;58.30;;;;;;6216329;23;20147;-70
2023/05/28 06:22:47;;;;;;;10.20;6.53;;;25.70;58.40;;;;;;6216846;23;20001;-71
2023/05/28 06:25:14;;;;;;;9.02;6.38;;;25.90;58.10;;;;;;6216404;23;20497;-73
2023/05/28 06:27:40;;;;;;;11.15;6.10;;;25.90;58.10;;;;;;6214647;23;20012;-71
2023/05/28 06:30:07;;;;;;;11.15;6.38;;;25.90;57.70;;;;;;6216507;23;20403;-72
2023/05/28 06:32:33;;;;;;;8.95;5.40;;;26.10;57.80;;;;;;6216214;23;20004;-71
2023/05/28 06:34:58;;;;;;;10.13;5.95;;;26.10;57.90;;;;;;6216290;23;20008;-72
2023/05/28 06:37:24;;;;;;;9.35;5.55;;;26.30;57.80;;;;;;6214462;23;20009;-71
2023/05/28 06:39:50;;;;;;;10.85;6.63;;;26.50;57.70;;;;;;6215920;23;20016;-71
2023/05/28 06:42:16;;;;;;;8.60;5.90;;;26.80;56.90;;;;;;6216374;23;20039;-72
2023/05/28 06:44:41;;;;;;;10.05;6.30;;;26.70;56.90;;;;;;6216313;23;20485;-71
2023/05/28 06:47:07;;;;;;;12.65;6.53;;;26.90;57.10;;;;;;6216158;23;20001;-71
2023/05/28 06:49:33;;;;;;;8.35;5.45;;;27.10;56.90;;;;;;6216116;23;20009;-73
2023/05/28 06:51:58;;;;;;;10.70;7.07;;;27.30;56.60;;;;;;6215758;23;20457;-73
2023/05/28 06:54:24;;;;;;;10.68;6.80;;;27.40;56.10;;;;;;6215976;23;20004;-73
2023/05/28 06:56:50;;;;;;;10.70;6.45;;;27.30;55.90;;;;;;6216499;23;20005;-74
2023/05/28 06:59:16;;;;;;;10.68;6.25;;;27.40;56.10;;;;;;6216257;23;20013;-74
2023/05/28 07:01:41;;;;;;;12.40;5.93;;;27.40;56.10;;;;;;6216328;23;20100;-73
2023/05/28 07:04:07;;;;;;;12.82;6.28;;;27.40;55.70;;;;;;6215832;23;20466;-74
2023/05/28 07:06:33;;;;;;;10.45;5.85;;;27.50;55.50;;;;;;6216273;23;20009;-74
2023/05/28 07:08:59;;;;;;;10.80;5.97;;;27.50;55.50;;;;;;6189425;23;20520;-75
2023/05/28 07:11:26;;;;;;;9.77;5.43;;;27.50;55.60;;;;;;6215920;23;20001;-74
2023/05/28 07:13:54;;;;;;;10.65;5.70;;;27.50;55.50;;;;;;6216159;23;20071;-74
2023/05/28 07:16:20;;;;;;;7.53;5.43;;;27.40;55.50;;;;;;6216136;23;20011;-75
2023/05/28 07:18:46;;;;;;;11.38;6.63;;;27.40;55.70;;;;;;6215526;23;20062;-74
2023/05/28 07:21:12;;;;;;;9.75;5.97;;;27.50;55.50;;;;;;6216489;23;20005;-74
2023/05/28 07:23:38;;;;;;;14.02;6.22;;;27.60;55.50;;;;;;6215965;23;20499;-74
2023/05/28 07:26:04;;;;;;;8.88;6.03;;;27.70;55.10;;;;;;6216306;23;20050;-73
2023/05/28 07:28:30;;;;;;;12.27;6.30;;;27.70;55.20;;;;;;6216184;23;20454;-73
2023/05/28 07:30:56;;;;;;;8.68;5.55;;;27.70;55.10;;;;;;6216407;23;19996;-73
2023/05/28 07:33:22;;;;;;;15.63;7.28;;;27.70;55.00;;;;;;6189922;23;20343;-76
2023/05/28 07:35:48;;;;;;;10.52;6.80;;;27.60;55.40;;;;;;6213908;23;20012;-74
2023/05/28 07:38:14;;;;;;;10.45;6.38;;;27.60;55.40;;;;;;6234785;23;19985;-72
2023/05/28 07:40:41;;;;;;;9.05;6.22;;;27.60;55.80;;;;;;6238894;23;20047;-73
2023/05/28 07:43:07;;;;;;;11.93;6.53;;;27.60;56.00;;;;;;6190578;23;20017;-72
2023/05/28 07:45:32;;;;;;;10.02;6.05;;;27.60;56.00;;;;;;6216401;23;20346;-73
2023/05/28 07:47:58;;;;;;;9.82;6.32;;;27.70;56.20;;;;;;6216073;23;20000;-72
2023/05/28 07:50:24;;;;;;;10.10;6.13;;;27.60;55.80;;;;;;6215864;23;20419;-71
2023/05/28 07:52:50;;;;;;;11.48;7.13;;;27.60;55.90;;;;;;6215747;23;20004;-70
2023/05/28 07:55:16;;;;;;;11.30;6.35;;;27.60;55.90;;;;;;6215675;23;20442;-71
2023/05/28 07:57:42;;;;;;;17.45;6.68;;;27.60;56.40;;;;;;6215840;23;20011;-71
2023/05/28 08:00:15;;;;;;;10.07;7.47;;;27.60;56.40;;;;;;6215656;23;20028;-71
2023/05/28 08:02:42;;;;;;;8.40;6.18;;;27.50;56.30;;;;;;6215419;23;20494;-72
2023/05/28 08:05:08;;;;;;;17.55;7.97;;;27.50;56.60;;;;;;6215312;23;20021;-71
2023/05/28 08:07:34;;;;;;;12.75;7.53;;;27.50;56.90;;;;;;6215197;23;20005;-72
2023/05/28 08:10:01;;;;;;;11.95;7.63;;;27.50;57.10;;;;;;6215625;23;20338;-72
2023/05/28 08:12:26;;;;;;;10.70;7.60;;;27.50;56.70;;;;;;6215416;23;20088;-71
2023/05/28 08:14:52;;;;;;;10.60;7.63;;;27.40;56.50;;;;;;6213942;23;20036;-71
2023/05/28 08:17:22;;;;;;;12.27;7.80;;;27.30;57.00;;;;;;6215557;23;20015;-72
2023/05/28 08:19:48;;;;;;;14.05;8.48;;;27.20;57.40;;;;;;6215331;23;20501;-72
2023/05/28 08:22:14;;;;;;;10.15;7.68;;;27.20;57.60;;;;;;6213965;23;20059;-71
2023/05/28 08:24:40;;;;;;;13.05;7.57;;;27.10;57.10;;;;;;6215570;23;20004;-72
2023/05/28 08:27:06;;;;;;;16.85;8.82;;;27.10;57.70;;;;;;6215204;23;20308;-71
2023/05/28 08:29:32;;;;;;;23.25;9.55;;;27.10;58.20;;;;;;6215622;23;20039;-72
2023/05/28 08:31:58;;;;;;;17.60;8.85;;;27.00;59.10;;;;;;6215459;23;20019;-72
2023/05/28 08:34:25;;;;;;;14.48;9.52;;;27.00;59.20;;;;;;6215476;23;20008;-75
2023/05/28 08:36:51;;;;;;;15.63;8.00;;;26.90;60.20;;;;;;6215369;23;20008;-74
2023/05/28 08:39:17;;;;;;;18.35;8.32;;;26.80;59.90;;;;;;6215381;23;20013;-74
2023/05/28 08:41:43;;;;;;;16.33;8.43;;;26.80;60.00;;;;;;6215392;23;20011;-75
2023/05/28 08:44:09;;;;;;;16.80;8.38;;;26.80;60.10;;;;;;6215066;23;20000;-73
2023/05/28 08:46:36;;;;;;;10.68;7.80;;;26.70;60.10;;;;;;6215091;23;20496;-75
2023/05/28 08:49:03;;;;;;;12.45;7.75;;;26.70;60.10;;;;;;6215225;23;20028;-75
2023/05/28 08:51:32;;;;;;;12.75;7.70;;;26.70;59.40;;;;;;6215135;23;20004;-73
2023/05/28 08:54:00;;;;;;;11.18;7.05;;;26.70;59.50;;;;;;6215681;23;20071;-74
2023/05/28 08:56:26;;;;;;;10.50;6.78;;;26.60;59.70;;;;;;6215322;23;20008;-74
2023/05/28 08:58:52;;;;;;;9.05;6.95;;;26.60;59.50;;;;;;6215431;23;20016;-74
2023/05/28 09:01:19;;;;;;;17.25;7.43;;;26.60;59.60;;;;;;6215278;23;20007;-75
2023/05/28 09:03:45;;;;;;;11.73;7.00;;;26.60;60.10;;;;;;6214906;23;20415;-74
2023/05/28 09:06:12;;;;;;;11.60;7.93;;;26.60;60.00;;;;;;6213470;23;20470;-74
2023/05/28 09:08:38;;;;;;;9.40;6.13;;;26.60;60.60;;;;;;6215257;23;20000;-76
2023/05/28 09:11:12;;;;;;;9.50;6.18;;;26.60;58.90;;;;;;6215180;23;20001;-75
2023/05/28 09:13:45;;;;;;;11.63;6.00;;;26.60;58.90;;;;;;6215381;23;20005;-79
2023/05/28 09:16:12;;;;;;;;;;;26.70;58.30;;;;;;6215386;23;20079;-74
2023/05/28 09:18:38;;;;;;;9.95;6.43;;;26.70;57.20;;;;;;6215386;23;19907;-72
2023/05/28 09:21:12;;;;;;;10.20;6.65;;;26.70;57.80;;;;;;6215087;23;20012;-72
2023/05/28 09:23:39;;;;;;;8.75;5.30;;;26.70;58.70;;;;;;6215463;23;20076;-74
2023/05/28 09:26:09;;;;;;;11.38;5.47;;;26.80;56.70;;;;;;6214271;23;20001;-73
2023/05/28 09:28:35;;;;;;;11.68;7.22;;;26.80;56.50;;;;;;6214974;23;20004;-72
2023/05/28 09:31:07;;;;;;;8.40;5.95;;;26.80;57.70;;;;;;6215028;23;20005;-75
2023/05/28 09:33:33;;;;;;;13.18;6.47;;;26.90;57.20;;;;;;6214773;23;20005;-72
2023/05/28 09:36:00;;;;;;;7.72;5.45;;;26.80;57.60;;;;;;6215213;23;20012;-73
2023/05/28 09:38:27;;;;;;;8.02;6.15;;;26.90;57.40;;;;;;6214449;23;20008;-74
2023/05/28 09:40:55;;;;;;;9.10;6.22;;;26.90;56.60;;;;;;6214710;23;20059;-79
2023/05/28 09:43:30;;;;;;;10.32;6.28;;;26.90;57.30;;;;;;6215550;23;20359;-74
2023/05/28 09:46:09;;;;;;;13.30;6.32;;;26.90;56.60;;;;;;6216930;23;20016;-75
2023/05/28 09:48:35;;;;;;;9.65;6.85;;;27.00;55.70;;;;;;6217396;23;20040;-73
2023/05/28 09:51:04;;;;;;;6.97;5.22;;;27.00;56.10;;;;;;6217955;23;20000;-74
2023/05/28 09:53:33;;;;;;;10.55;7.80;;;27.00;54.80;;;;;;6217797;23;20005;-73
2023/05/28 09:56:00;;;;;;;13.52;6.95;;;27.10;56.00;;;;;;6228217;23;20080;-74
2023/05/28 09:58:36;;;;;;;10.43;6.05;;;27.10;55.60;;;;;;6240996;23;20011;-74
2023/05/28 10:01:10;;;;;;;12.55;8.10;;;27.10;55.30;;;;;;6218553;23;20013;-74
2023/05/28 10:03:44;;;;;;;10.10;7.60;;;27.10;56.70;;;;;;6216972;23;20017;-73
2023/05/28 10:06:13;;;;;;;7.80;5.85;;;27.10;54.40;;;;;;6216825;23;20025;-73
2023/05/28 10:08:42;;;;;;;7.13;5.38;;;27.20;54.00;;;;;;6216782;23;20280;-74
2023/05/28 10:11:11;;;;;;;11.68;6.28;;;27.20;53.20;;;;;;6190467;23;20031;-71
2023/05/28 10:13:38;;;;;;;10.57;7.30;;;27.20;53.40;;;;;;6216665;23;20004;-75
2023/05/28 10:16:04;;;;;;;9.43;6.63;;;27.20;54.40;;;;;;6216887;23;20005;-74
2023/05/28 10:18:30;;;;;;;8.93;6.90;;;27.20;53.80;;;;;;6216383;23;20028;-74
2023/05/28 10:20:57;;;;;;;14.00;11.05;;;27.20;53.70;;;;;;6216837;23;20062;-75
2023/05/28 10:23:24;;;;;;;14.20;10.15;;;27.30;55.50;;;;;;6216635;23;20469;-73
2023/05/28 10:25:50;;;;;;;13.10;10.73;;;27.30;54.60;;;;;;6216607;23;20005;-78
2023/05/28 10:28:16;;;;;;;13.55;10.48;;;27.30;55.90;;;;;;6215901;23;20438;-76
2023/05/28 10:30:42;;;;;;;10.43;6.43;;;27.40;55.90;;;;;;6216488;23;20001;-76
2023/05/28 10:33:15;;;;;;;11.65;6.55;;;27.40;55.20;;;;;;6216775;23;20088;-76
2023/05/28 10:35:55;;;;;;;9.70;7.43;;;27.40;55.40;;;;;;6216109;23;20431;-76
2023/05/28 10:38:22;;;;;;;9.82;6.70;;;27.40;56.30;;;;;;6215965;23;20012;-76
2023/05/28 10:40:51;;;;;;;9.70;6.57;;;27.40;56.40;;;;;;6216081;23;20315;-76
2023/05/28 10:43:38;;;;;;;10.32;5.95;;;27.40;56.80;;;;;;6216444;23;19997;-77
2023/05/28 10:46:08;;;;;;;10.95;6.80;;;27.40;56.20;;;;;;6216691;23;20005;-77
2023/05/28 10:48:41;;;;;;;16.40;7.47;;;27.50;57.00;;;;;;6216306;23;20103;-78
2023/05/28 10:51:10;;;;;;;38.47;14.38;;;27.50;56.70;;;;;;6216255;23;20123;-76
2023/05/28 10:53:37;;;;;;;60.17;20.00;;;27.60;57.70;;;;;;6216302;23;20025;-74
2023/05/28 10:56:03;;;;;;;35.42;13.55;;;27.70;58.40;;;;;;6216189;23;20004;-76
2023/05/28 10:58:38;;;;;;;17.05;7.35;;;27.70;57.90;;;;;;6214616;23;20339;-76
2023/05/28 11:01:24;;;;;;;55.88;16.88;;;27.80;56.80;;;;;;6216177;23;20005;-75
2023/05/28 11:03:55;;;;;;;31.42;12.90;;;27.90;57.70;;;;;;6213557;23;20091;-78
2023/05/28 11:06:24;;;;;;;13.70;8.63;;;28.00;57.80;;;;;;6216383;23;20005;-72
2023/05/28 11:08:50;;;;;;;9.85;5.63;;;28.00;56.70;;;;;;6215487;23;20078;-72
2023/05/28 11:11:18;;;;;;;12.95;7.05;;;28.10;54.80;;;;;;6215725;23;20001;-75
2023/05/28 11:13:45;;;;;;;10.45;5.57;;;28.10;54.70;;;;;;6217186;23;20001;-74
2023/05/28 11:16:12;;;;;;;9.82;5.82;;;28.10;54.00;;;;;;6216459;23;20000;-72
2023/05/28 11:18:38;;;;;;;11.85;6.63;;;28.10;53.50;;;;;;6216510;23;20009;-74
2023/05/28 11:21:11;;;;;;;20.45;9.10;;;28.10;53.60;;;;;;6189941;23;20012;-73
2023/05/28 11:23:37;;;;;;;14.35;6.93;;;28.20;54.40;;;;;;6216513;23;20416;-74
2023/05/28 11:26:04;;;;;;;6.45;4.38;;;28.20;53.60;;;;;;6216634;23;20068;-73
2023/05/28 11:28:31;;;;;;;7.90;5.07;;;28.20;52.50;;;;;;6216334;23;20073;-73
2023/05/28 11:30:58;;;;;;;8.55;5.15;;;28.20;51.60;;;;;;6214594;23;20004;-74
2023/05/28 11:33:27;;;;;;;7.20;4.88;;;28.30;52.00;;;;;;6216188;23;20000;-73
2023/05/28 11:36:00;;;;;;;11.73;6.43;;;28.30;51.30;;;;;;6216378;23;20013;-73
2023/05/28 11:38:26;;;;;;;7.80;4.72;;;28.30;49.80;;;;;;6214267;23;20036;-73
2023/05/28 11:41:00;;;;;;;13.95;7.40;;;28.30;50.80;;;;;;6216099;23;20003;-73
2023/05/28 11:43:26;;;;;;;11.85;6.68;;;28.30;51.70;;;;;;6216462;23;20023;-74
2023/05/28 11:45:58;;;;;;;9.82;6.32;;;28.40;51.50;;;;;;6216005;23;20005;-73
2023/05/28 11:48:26;;;;;;;10.43;5.88;;;28.40;51.60;;;;;;6215700;23;20504;-73
2023/05/28 11:51:00;;;;;;;11.88;5.30;;;28.40;51.40;;;;;;6215822;23;20060;-75
2023/05/28 11:53:46;;;;;;;10.02;6.50;;;28.40;50.30;;;;;;6215789;23;20009;-79
2023/05/28 11:56:13;;;;;;;12.70;6.97;;;28.50;51.30;;;;;;6215670;23;20039;-73
2023/05/28 11:58:45;;;;;;;8.88;5.90;;;28.50;52.00;;;;;;6215644;23;20008;-73
2023/05/28 12:01:17;;;;;;;10.43;5.15;;;28.50;51.40;;;;;;6215954;23;19996;-73
2023/05/28 12:03:43;;;;;;;11.43;6.10;;;28.50;50.50;;;;;;6216412;23;20094;-73
2023/05/28 12:06:13;;;;;;;8.02;4.97;;;28.60;51.20;;;;;;6225347;23;19988;-74
2023/05/28 12:08:41;;;;;;;10.05;6.43;;;28.60;50.60;;;;;;6238482;23;20016;-72
2023/05/28 12:11:10;;;;;;;9.80;6.20;;;28.50;50.70;;;;;;6224594;23;20330;-74
2023/05/28 12:13:37;;;;;;;9.45;6.43;;;28.50;51.30;;;;;;6216068;23;20005;-74
2023/05/28 12:16:11;;;;;;;7.55;5.13;;;28.50;51.30;;;;;;6214291;23;20009;-73
2023/05/28 12:18:43;;;;;;;16.50;7.30;;;28.60;50.50;;;;;;6188762;23;20023;-72
2023/05/28 12:21:18;;;;;;;7.90;5.00;;;28.60;52.40;;;;;;6216423;23;20026;-72
2023/05/28 12:23:45;;;;;;;10.85;6.55;;;28.70;50.80;;;;;;6215893;23;20009;-73
2023/05/28 12:26:14;;;;;;;9.43;5.32;;;28.60;50.50;;;;;;6216628;23;20001;-72
2023/05/28 12:28:41;;;;;;;13.55;6.03;;;28.70;50.60;;;;;;6216498;23;20004;-73
2023/05/28 12:31:08;;;;;;;9.10;5.45;;;28.70;50.90;;;;;;6216181;23;20005;-73
2023/05/28 12:33:33;;;;;;;6.70;4.80;;;28.80;51.10;;;;;;6215912;23;20005;-73
2023/05/28 12:36:02;;;;;;;8.02;5.13;;;28.80;49.90;;;;;;6215832;23;20001;-70
2023/05/28 12:38:28;;;;;;;8.25;5.43;;;28.80;48.80;;;;;;6215328;23;20004;-73
2023/05/28 12:40:54;;;;;;;9.52;5.38;;;28.80;50.60;;;;;;6215649;23;20000;-73